Time;durP1;ratioP1;P1;durP2;ratioP2;P2;SDS_P1;SDS_P2;PMS_P1;PMS_P2;Temp;Humidity;BMP_temperature;BMP_pressure;BME280_temperature;BME280_humidity;BME280_pressure;Samples;Min_cycle;Max_cycle;Signal;HPM_P1;HPM_P2
2023/05/18 00:00:59;;;;;;;;;11.00;5.67;;;;;12.19;59.90;102459.69;5033722;27;45386;-76
2023/05/18 00:03:24;;;;;;;;;7.00;6.00;;;;;12.19;60.10;102461.44;5034928;28;45331;-78
2023/05/18 00:05:49;;;;;;;;;7.33;7.00;;;;;12.17;59.90;102456.16;5036525;27;45514;-78
2023/05/18 00:08:15;;;;;;;;;6.33;5.00;;;;;12.09;59.77;102447.38;5036336;28;45593;-78
2023/05/18 00:10:41;;;;;;;;;9.00;7.00;;;;;12.02;60.20;102457.09;5036702;27;45319;-78
2023/05/18 00:13:07;;;;;;;;;7.00;6.00;;;;;11.91;60.29;102435.06;5037188;27;45293;-78
2023/05/18 00:15:33;;;;;;;;;11.33;7.67;;;;;11.98;60.00;102452.69;5036414;27;45482;-78
2023/05/18 00:17:58;;;;;;;;;8.00;5.00;;;;;11.99;59.95;102445.63;5036590;28;46150;-77
2023/05/18 00:20:25;;;;;;;;;11.33;5.33;;;;;12.02;60.34;102450.91;5036658;28;45311;-78
2023/05/18 00:22:51;;;;;;;;;6.00;6.00;;;;;12.04;60.28;102448.25;5036345;28;45315;-78
2023/05/18 00:25:17;;;;;;;;;8.67;6.33;;;;;11.97;60.30;102435.06;5036774;27;45349;-79
2023/05/18 00:27:42;;;;;;;;;6.00;4.67;;;;;12.00;59.93;102447.41;5036560;27;45355;-78
2023/05/18 00:30:08;;;;;;;;;6.67;5.00;;;;;11.92;60.52;102443.84;5036589;28;45740;-77
2023/05/18 00:32:33;;;;;;;;;7.67;7.00;;;;;11.84;60.60;102433.31;5036656;28;45434;-79
2023/05/18 00:34:58;;;;;;;;;6.00;5.00;;;;;11.89;60.98;102441.22;5036626;28;45408;-79
2023/05/18 00:37:24;;;;;;;;;8.33;5.00;;;;;11.79;60.98;102435.06;5036164;28;45444;-82
2023/05/18 00:39:49;;;;;;;;;12.33;6.00;;;;;11.61;61.09;102409.56;5036346;27;45391;-78
2023/05/18 00:42:15;;;;;;;;;12.33;4.67;;;;;11.77;61.37;102440.34;5036329;28;45284;-77
2023/05/18 00:44:40;;;;;;;;;4.33;4.00;;;;;11.83;61.19;102440.31;5036492;28;45429;-81
2023/05/18 00:47:06;;;;;;;;;10.67;6.67;;;;;11.78;61.17;102442.09;5035968;27;45599;-78
2023/05/18 00:49:31;;;;;;;;;8.00;7.00;;;;;11.74;61.06;102429.78;5035886;28;45494;-81
2023/05/18 00:51:57;;;;;;;;;8.00;6.00;;;;;11.73;61.41;102429.78;5036057;28;45795;-78
2023/05/18 00:54:23;;;;;;;;;10.67;7.00;;;;;11.77;61.78;102440.34;5036327;28;45344;-79
2023/05/18 00:56:50;;;;;;;;;11.00;7.00;;;;;11.74;61.94;102439.47;5035303;28;45733;-79
2023/05/18 00:59:17;;;;;;;;;9.00;6.00;;;;;11.68;61.46;102427.16;5035937;28;45351;-80
2023/05/18 01:01:43;;;;;;;;;7.33;6.00;;;;;11.78;61.65;102450.00;5036280;27;45232;-79
2023/05/18 01:04:09;;;;;;;;;8.00;5.67;;;;;11.69;61.66;102439.47;5036127;27;45573;-78
2023/05/18 01:06:34;;;;;;;;;7.00;7.00;;;;;11.60;61.58;102431.53;5035090;28;46367;-78
2023/05/18 01:09:05;;;;;;;;;11.00;8.00;;;;;11.67;62.09;102443.84;5034807;28;45395;-80
2023/05/18 01:12:08;;;;;;;;;7.67;5.67;;;;;11.69;61.64;102450.03;5035986;27;45482;-78
2023/05/18 01:15:07;;;;;;;;;10.00;6.33;;;;;11.71;61.51;102447.38;5034577;28;45390;-80
2023/05/18 01:17:59;;;;;;;;;10.33;8.00;;;;;11.68;61.55;102441.22;5035561;28;46437;-80
2023/05/18 01:20:36;;;;;;;;;7.67;5.00;;;;;11.59;61.77;102433.31;5035790;27;45387;-80
2023/05/18 01:23:23;;;;;;;;;8.00;5.00;;;;;11.63;61.53;102444.72;5035622;28;45331;-78
2023/05/18 01:25:54;;;;;;;;;3.00;2.67;;;;;11.59;61.83;102443.88;5035967;28;45539;-81
2023/05/18 01:28:26;;;;;;;;;6.67;6.67;;;;;11.49;62.03;102435.06;5035429;28;45305;-80
2023/05/18 01:30:52;;;;;;;;;12.00;8.00;;;;;11.52;62.44;102431.53;5035720;27;45415;-80
2023/05/18 01:33:17;;;;;;;;;9.67;6.00;;;;;11.43;62.55;102439.44;5035772;28;45365;-80
2023/05/18 01:35:49;;;;;;;;;11.33;6.67;;;;;11.21;62.76;102406.88;5035805;28;45309;-79
2023/05/18 01:38:26;;;;;;;;;11.00;7.00;;;;;11.23;62.39;102407.78;5035452;28;47055;-81
2023/05/18 01:40:55;;;;;;;;;12.33;7.67;;;;;11.46;62.99;102442.97;5035676;28;45326;-79
2023/05/18 01:43:30;;;;;;;;;7.33;6.33;;;;;11.45;62.82;102443.84;5035647;28;45431;-80
2023/05/18 01:46:00;;;;;;;;;10.67;7.00;;;;;11.47;63.01;102436.81;5035620;27;45316;-79
2023/05/18 01:48:26;;;;;;;;;8.33;6.00;;;;;11.43;62.91;102424.50;5035047;28;46209;-77
2023/05/18 01:50:56;;;;;;;;;7.33;7.00;;;;;11.38;62.70;102417.47;5035321;28;45718;-77
2023/05/18 01:53:36;;;;;;;;;16.33;10.33;;;;;11.46;62.85;102429.78;5035432;28;45386;-78
2023/05/18 01:56:07;;;;;;;;;9.67;7.67;;;;;11.47;62.84;102428.00;5035800;27;45339;-78
2023/05/18 01:58:34;;;;;;;;;10.00;9.33;;;;;11.41;63.29;102428.88;5035265;28;47435;-79
2023/05/18 02:00:59;;;;;;;;;9.33;8.00;;;;;11.40;63.30;102434.16;5034252;28;45347;-80
2023/05/18 02:03:25;;;;;;;;;9.67;9.33;;;;;11.31;63.08;102422.75;5036144;27;45433;-79
2023/05/18 02:05:50;;;;;;;;;7.67;7.00;;;;;11.34;63.65;102421.84;5035801;27;45516;-78
2023/05/18 02:08:16;;;;;;;;;9.33;8.00;;;;;11.33;63.47;102425.38;5035013;28;46090;-78
2023/05/18 02:10:41;;;;;;;;;14.67;9.33;;;;;11.35;63.49;102428.88;5034678;27;45463;-79
2023/05/18 02:13:07;;;;;;;;;14.33;10.00;;;;;11.35;63.38;102431.53;5035061;28;45249;-78
2023/05/18 02:15:32;;;;;;;;;7.00;7.00;;;;;11.29;63.59;102413.06;5035462;28;45349;-78
2023/05/18 02:17:57;;;;;;;;;11.00;8.33;;;;;11.34;63.49;102424.47;5034305;28;46296;-79
2023/05/18 02:20:23;;;;;;;;;10.67;9.00;;;;;11.32;63.40;102421.84;5035060;28;45426;-78
2023/05/18 02:22:48;;;;;;;;;11.00;8.67;;;;;11.28;63.40;102419.22;5035395;27;45707;-77
2023/05/18 02:25:13;;;;;;;;;8.00;7.00;;;;;11.32;63.46;102426.25;5034816;28;45475;-76
2023/05/18 02:27:39;;;;;;;;;10.33;10.00;;;;;11.25;63.24;102411.28;5035032;28;45510;-77
2023/05/18 02:30:07;;;;;;;;;10.33;7.67;;;;;11.37;63.62;102432.41;5034339;28;45497;-77
2023/05/18 02:32:37;;;;;;;;;14.00;10.33;;;;;11.38;63.58;102434.16;5035163;28;45792;-78
2023/05/18 02:35:06;;;;;;;;;9.00;7.33;;;;;11.35;63.38;102426.25;5035299;27;45369;-78
2023/05/18 02:37:33;;;;;;;;;10.67;9.67;;;;;11.27;63.49;102410.44;5034751;28;45796;-78
2023/05/18 02:39:58;;;;;;;;;11.00;11.00;;;;;11.38;63.26;102434.16;5034906;28;45275;-79
2023/05/18 02:42:24;;;;;;;;;9.33;8.00;;;;;11.32;63.17;102411.28;5035122;28;45270;-78
2023/05/18 02:44:49;;;;;;;;;11.00;9.00;;;;;11.35;63.26;102420.97;5035150;27;45612;-77
2023/05/18 02:47:14;;;;;;;;;12.67;8.67;;;;;11.29;63.41;102420.97;5033767;27;46463;-77
2023/05/18 02:49:40;;;;;;;;;9.67;8.00;;;;;11.35;63.44;102430.66;5034592;28;45414;-77
2023/05/18 02:52:05;;;;;;;;;14.33;9.67;;;;;11.24;63.45;102414.81;5034805;28;45318;-77
2023/05/18 02:54:31;;;;;;;;;12.00;9.33;;;;;11.32;63.26;102428.88;5034810;28;45426;-79
2023/05/18 02:56:57;;;;;;;;;14.67;10.00;;;;;11.30;63.33;102435.94;5034891;27;46308;-78
2023/05/18 02:59:23;;;;;;;;;12.67;10.00;;;;;11.19;63.83;102419.22;5034599;28;45379;-77
2023/05/18 03:01:48;;;;;;;;;19.67;10.67;;;;;11.26;63.40;102423.63;5034963;27;45339;-78
2023/05/18 03:04:15;;;;;;;;;13.33;10.33;;;;;11.17;63.46;102420.94;5034945;28;45384;-78
2023/05/18 03:06:41;;;;;;;;;7.00;7.00;;;;;11.04;64.00;102410.38;5034499;28;46426;-77
2023/05/18 03:09:06;;;;;;;;;14.33;11.00;;;;;11.08;63.85;102419.16;5034345;28;45224;-78
2023/05/18 03:11:31;;;;;;;;;13.00;10.00;;;;;11.05;64.04;102427.97;5033749;27;45414;-78
2023/05/18 03:13:57;;;;;;;;;9.33;9.33;;;;;11.12;64.12;102432.38;5034555;28;45361;-83
2023/05/18 03:16:27;;;;;;;;;11.00;9.67;;;;;10.86;63.73;102384.84;5034231;28;45739;-76
2023/05/18 03:18:53;;;;;;;;;16.00;13.33;;;;;11.04;64.49;102427.97;5034543;28;45356;-76
2023/05/18 03:21:18;;;;;;;;;11.00;10.00;;;;;11.05;64.52;102427.06;5034431;28;45524;-76
2023/05/18 03:23:44;;;;;;;;;10.33;8.67;;;;;10.99;64.46;102420.03;5034528;27;45447;-77
2023/05/18 03:26:11;;;;;;;;;12.33;8.67;;;;;10.96;64.44;102418.28;5034198;28;46730;-77
2023/05/18 03:28:37;;;;;;;;;15.00;11.67;;;;;11.01;63.99;102426.19;5034155;27;45396;-77
2023/05/18 03:31:03;;;;;;;;;17.67;10.67;;;;;10.91;64.34;102405.97;5034532;28;45319;-78
2023/05/18 03:33:28;;;;;;;;;12.33;10.00;;;;;10.96;64.55;102426.19;5034692;28;45610;-79
2023/05/18 03:35:53;;;;;;;;;12.33;9.00;;;;;10.90;64.41;102423.50;5033297;27;46618;-78
2023/05/18 03:38:19;;;;;;;;;16.00;11.67;;;;;10.87;64.58;102420.00;5036057;28;45313;-77
2023/05/18 03:40:45;;;;;;;;;9.00;9.00;;;;;10.87;64.68;102425.28;5025782;27;45516;-76
2023/05/18 03:43:10;;;;;;;;;8.33;8.33;;;;;10.69;64.47;102397.09;5028095;28;45452;-78
2023/05/18 03:45:35;;;;;;;;;9.33;9.00;;;;;10.92;64.56;102434.97;5016913;28;46403;-77
2023/05/18 03:48:01;;;;;;;;;14.00;12.00;;;;;10.95;64.44;102434.09;5017008;28;45458;-77
2023/05/18 03:50:27;;;;;;;;;10.67;10.00;;;;;10.91;64.46;102434.97;5017225;28;45440;-77
2023/05/18 03:52:52;;;;;;;;;14.00;10.00;;;;;10.66;64.68;102392.72;5017057;28;45534;-77
2023/05/18 03:55:20;;;;;;;;;13.67;10.00;;;;;10.87;64.51;102422.63;5016938;28;46171;-77
2023/05/18 03:57:46;;;;;;;;;13.00;11.00;;;;;10.82;64.57;102424.38;5017082;28;45430;-77
2023/05/18 04:00:12;;;;;;;;;15.33;11.33;;;;;10.85;64.39;102445.47;5016941;28;45190;-77
2023/05/18 04:02:38;;;;;;;;;11.33;8.33;;;;;10.84;64.66;102438.44;5017057;28;45475;-76
2023/05/18 04:05:05;;;;;;;;;16.33;11.33;;;;;10.84;64.68;102439.31;5016800;27;45450;-75
2023/05/18 04:07:30;;;;;;;;;13.00;9.67;;;;;10.88;64.69;102440.22;5017204;27;45403;-75
2023/05/18 04:09:56;;;;;;;;;15.00;9.00;;;;;10.85;64.62;102432.28;5016764;27;45693;-75
2023/05/18 04:12:21;;;;;;;;;18.67;11.67;;;;;10.88;64.39;102437.59;5016944;28;45355;-75
2023/05/18 04:14:48;;;;;;;;;12.33;10.33;;;;;10.56;64.47;102388.28;5016736;27;46145;-74
2023/05/18 04:17:20;;;;;;;;;14.00;10.00;;;;;10.88;64.40;102443.72;5016675;28;45425;-74
2023/05/18 04:19:47;;;;;;;;;11.33;10.33;;;;;10.89;64.15;102441.97;5016790;28;45434;-74
2023/05/18 04:22:12;;;;;;;;;11.33;10.00;;;;;10.85;63.94;102437.56;5017084;27;45351;-74
2023/05/18 04:24:40;;;;;;;;;10.67;9.67;;;;;10.57;63.71;102390.94;5016315;28;46267;-74
2023/05/18 04:27:05;;;;;;;;;12.00;10.67;;;;;10.78;63.98;102439.31;5016855;27;45271;-74
2023/05/18 04:29:30;;;;;;;;;12.00;11.00;;;;;10.73;64.19;102431.38;5016662;28;45324;-76
2023/05/18 04:31:59;;;;;;;;;13.67;10.67;;;;;10.75;63.38;102444.56;5016794;28;45223;-74
2023/05/18 04:34:28;;;;;;;;;12.33;9.33;;;;;10.69;63.82;102437.50;5016762;27;46507;-75
2023/05/18 04:36:55;;;;;;;;;11.00;11.00;;;;;10.73;64.31;102439.28;5016493;28;45363;-75
2023/05/18 04:39:22;;;;;;;;;9.00;8.67;;;;;10.76;64.02;102435.75;5016584;27;45494;-76
2023/05/18 04:41:49;;;;;;;;;9.67;8.67;;;;;10.73;63.59;102436.66;5016745;28;45451;-77
2023/05/18 04:44:18;;;;;;;;;12.67;11.00;;;;;10.72;63.70;102452.47;5016344;28;46654;-77
2023/05/18 04:46:46;;;;;;;;;15.67;12.33;;;;;10.62;63.84;102427.81;5016091;28;45349;-76
2023/05/18 04:49:14;;;;;;;;;18.33;12.67;;;;;10.68;63.68;102443.66;5016217;28;45224;-77
2023/05/18 04:51:40;;;;;;;;;17.00;10.00;;;;;10.73;63.88;102438.38;5016546;28;45423;-76
2023/05/18 04:54:07;;;;;;;;;11.67;8.67;;;;;10.83;63.86;102445.44;5015931;28;46224;-76
2023/05/18 04:56:33;;;;;;;;;15.00;11.00;;;;;10.88;63.41;102448.13;5016262;28;45270;-78
2023/05/18 04:58:58;;;;;;;;;11.33;10.33;;;;;10.90;62.97;102438.47;5016158;28;45422;-78
2023/05/18 05:01:24;;;;;;;;;11.67;9.00;;;;;10.88;63.13;102440.22;5016594;28;45320;-78
2023/05/18 05:03:49;;;;;;;;;13.67;9.67;;;;;10.88;62.69;102433.19;5016275;28;47117;-78
2023/05/18 05:06:15;;;;;;;;;11.67;8.67;;;;;10.92;62.78;102445.50;5016162;28;45163;-79
2023/05/18 05:08:40;;;;;;;;;16.00;9.67;;;;;10.84;62.64;102422.63;5016071;28;45462;-79
2023/05/18 05:11:06;;;;;;;;;13.00;9.33;;;;;10.96;62.41;102431.47;5016463;27;45258;-78
2023/05/18 05:13:33;;;;;;;;;13.67;11.00;;;;;11.01;61.97;102439.38;5016155;28;45309;-77
2023/05/18 05:15:59;;;;;;;;;14.67;9.67;;;;;11.12;62.05;102450.84;5015998;28;45281;-77
2023/05/18 05:18:24;;;;;;;;;16.33;11.67;;;;;11.12;61.72;102444.66;5016235;28;45306;-82
2023/05/18 05:20:50;;;;;;;;;10.00;9.00;;;;;11.24;61.57;102446.44;5016398;27;45337;-82
2023/05/18 05:23:15;;;;;;;;;11.67;10.67;;;;;11.23;60.76;102431.53;5015707;28;47401;-79
2023/05/18 05:25:40;;;;;;;;;10.00;9.33;;;;;11.35;60.59;102442.06;5015883;28;45330;-78
2023/05/18 05:28:06;;;;;;;;;10.33;8.00;;;;;11.42;60.33;102451.75;5016113;28;45362;-84
2023/05/18 05:30:31;;;;;;;;;8.67;8.67;;;;;11.16;60.06;102398.97;5016288;28;45377;-79
2023/05/18 05:32:56;;;;;;;;;9.33;8.33;;;;;11.42;59.83;102438.56;5015713;27;46457;-80
2023/05/18 05:35:22;;;;;;;;;13.33;10.33;;;;;11.49;59.46;102456.16;5015901;28;45415;-79
2023/05/18 05:37:47;;;;;;;;;10.33;9.00;;;;;11.47;59.18;102454.38;5015953;28;45414;-78
2023/05/18 05:40:13;;;;;;;;;10.00;10.00;;;;;11.45;59.46;102442.97;5014645;28;45429;-79
2023/05/18 05:42:38;;;;;;;;;12.33;10.67;;;;;11.50;58.97;102444.75;5015497;28;46347;-77
2023/05/18 05:45:04;;;;;;;;;11.00;8.33;;;;;11.57;58.75;102455.28;5015966;27;45394;-77
2023/05/18 05:47:30;;;;;;;;;7.67;7.67;;;;;11.56;59.08;102443.88;5015555;27;45430;-77
2023/05/18 05:49:55;;;;;;;;;12.00;8.67;;;;;11.71;58.28;102450.91;5016247;27;45320;-77
2023/05/18 05:52:20;;;;;;;;;11.67;9.00;;;;;11.81;58.02;102452.66;5015485;28;46225;-77
2023/05/18 05:54:46;;;;;;;;;11.33;9.33;;;;;11.82;57.24;102453.53;5015586;28;45353;-77
2023/05/18 05:57:11;;;;;;;;;10.00;8.00;;;;;11.81;57.40;102471.13;5015724;27;45685;-77
2023/05/18 05:59:37;;;;;;;;;10.67;8.67;;;;;11.73;57.65;102456.16;5015173;28;45307;-78
2023/05/18 06:02:02;;;;;;;;;10.33;8.00;;;;;11.76;57.62;102457.06;5015236;27;46374;-79
2023/05/18 06:04:28;;;;;;;;;10.33;8.33;;;;;11.84;56.89;102460.56;5015386;28;45331;-77
2023/05/18 06:06:53;;;;;;;;;7.33;7.00;;;;;11.81;57.31;102450.00;5015538;28;45272;-77
2023/05/18 06:09:19;;;;;;;;;11.00;9.00;;;;;11.99;57.33;102469.38;5015532;28;45371;-77
2023/05/18 06:11:44;;;;;;;;;13.00;9.67;;;;;11.90;56.95;102456.19;5015812;28;46597;-76
2023/05/18 06:14:10;;;;;;;;;12.00;8.33;;;;;11.98;56.80;102480.81;5015262;28;45507;-76
2023/05/18 06:16:36;;;;;;;;;10.33;8.00;;;;;11.94;57.04;102484.38;5015293;28;45438;-79
2023/05/18 06:19:02;;;;;;;;;9.00;8.00;;;;;11.93;57.21;102478.19;5015428;28;45454;-81
2023/05/18 06:21:27;;;;;;;;;12.00;9.00;;;;;11.97;56.81;102473.81;5015087;28;46655;-79
2023/05/18 06:23:53;;;;;;;;;7.33;7.33;;;;;11.88;56.23;102466.75;5015366;28;45383;-79
2023/05/18 06:26:18;;;;;;;;;8.00;8.00;;;;;12.00;56.75;102487.00;5015503;27;45322;-78
2023/05/18 06:28:43;;;;;;;;;10.67;6.67;;;;;11.88;56.51;102466.75;5015115;28;45472;-78
2023/05/18 06:31:09;;;;;;;;;7.00;7.00;;;;;11.96;56.56;102469.41;5015636;27;46297;-79
2023/05/18 06:33:35;;;;;;;;;9.00;8.00;;;;;11.98;56.60;102478.19;5015141;28;45376;-80
2023/05/18 06:36:00;;;;;;;;;14.33;10.33;;;;;11.79;56.68;102437.69;5015296;28;45500;-78
2023/05/18 06:38:25;;;;;;;;;14.00;12.00;;;;;12.01;56.67;102468.50;5014943;28;45513;-77
2023/05/18 06:40:51;;;;;;;;;9.33;9.33;;;;;12.11;56.11;102474.66;5014845;28;46508;-78
2023/05/18 06:43:16;;;;;;;;;13.67;12.00;;;;;12.24;56.00;102483.44;5015181;28;45244;-77
2023/05/18 06:45:41;;;;;;;;;9.67;9.00;;;;;12.26;56.59;102481.69;5014718;27;45507;-77
2023/05/18 06:48:07;;;;;;;;;11.67;9.33;;;;;12.33;55.72;102485.22;5015110;28;45486;-78
2023/05/18 06:50:32;;;;;;;;;12.67;10.00;;;;;12.39;55.87;102487.81;5015251;27;45583;-77
2023/05/18 06:52:57;;;;;;;;;13.00;10.00;;;;;12.37;55.55;102479.00;5014680;28;45403;-77
2023/05/18 06:55:23;;;;;;;;;12.33;8.00;;;;;12.60;55.57;102486.88;5014939;28;45368;-77
2023/05/18 06:57:48;;;;;;;;;10.00;10.00;;;;;12.73;55.32;102482.44;5015048;28;45225;-78
2023/05/18 07:00:14;;;;;;;;;8.00;7.67;;;;;12.97;54.69;102449.72;5014956;28;45446;-77
2023/05/18 07:02:42;;;;;;;;;16.33;12.00;;;;;13.17;53.42;102477.81;5014849;28;45662;-79
2023/05/18 07:05:08;;;;;;;;;13.33;10.33;;;;;13.17;53.74;102478.72;5014490;28;45328;-78
2023/05/18 07:07:35;;;;;;;;;13.33;8.67;;;;;13.43;53.24;102468.88;5015118;28;45450;-78
2023/05/18 07:10:00;;;;;;;;;14.00;10.67;;;;;14.00;52.33;102481.63;5014707;27;46577;-80
2023/05/18 07:12:27;;;;;;;;;9.67;9.00;;;;;14.24;51.56;102459.34;5014301;28;45225;-79
2023/05/18 07:14:52;;;;;;;;;16.67;11.00;;;;;14.42;50.80;102484.75;4996945;28;45400;-84
2023/05/18 07:17:18;;;;;;;;;13.33;9.67;;;;;14.41;51.72;102483.88;5014696;28;45299;-81
2023/05/18 07:19:43;;;;;;;;;14.33;10.00;;;;;14.32;51.65;102472.50;5014529;28;46364;-81
2023/05/18 07:22:08;;;;;;;;;15.00;12.00;;;;;14.26;51.37;102479.63;5014440;28;45454;-82
2023/05/18 07:24:34;;;;;;;;;13.33;11.00;;;;;14.23;51.10;102476.13;5014298;28;45298;-82
2023/05/18 07:26:59;;;;;;;;;15.33;11.00;;;;;14.19;51.56;102488.53;5013816;28;45542;-81
2023/05/18 07:29:25;;;;;;;;;12.67;9.67;;;;;14.22;51.90;102485.84;5013841;28;46559;-83
2023/05/18 07:31:50;;;;;;;;;11.33;9.67;;;;;14.13;52.06;102475.34;5013993;28;45360;-80
2023/05/18 07:34:15;;;;;;;;;12.67;11.67;;;;;14.21;51.55;102484.09;5014153;28;45718;-81
2023/05/18 07:36:41;;;;;;;;;16.33;11.67;;;;;14.30;51.13;102484.91;5013568;27;45799;-82
2023/05/18 07:39:07;;;;;;;;;12.33;11.00;;;;;14.52;51.63;102499.69;5013934;28;46471;-79
2023/05/18 07:41:32;;;;;;;;;17.00;11.00;;;;;14.49;51.22;102497.03;5014578;28;45493;-81
2023/05/18 07:43:57;;;;;;;;;14.00;11.67;;;;;14.51;50.69;102495.28;5014211;28;45369;-75
2023/05/18 07:46:23;;;;;;;;;11.33;9.33;;;;;14.52;51.30;102493.50;5014378;27;45311;-73
2023/05/18 07:48:48;;;;;;;;;13.33;10.67;;;;;14.60;50.84;102497.81;5013544;28;47159;-78
2023/05/18 07:51:13;;;;;;;;;10.67;9.00;;;;;14.60;50.92;102486.34;5013788;28;45309;-78
2023/05/18 07:53:40;;;;;;;;;9.67;9.67;;;;;14.65;50.41;102497.78;5013721;28;45331;-73
2023/05/18 07:56:07;;;;;;;;;11.67;11.67;;;;;14.80;50.14;102491.44;5013852;28;45258;-68
2023/05/18 07:58:34;;;;;;;;;14.33;12.00;;;;;14.96;49.86;102495.66;5013613;28;46550;-67
2023/05/18 08:00:59;;;;;;;;;13.00;13.00;;;;;15.15;48.54;102482.13;5013850;28;45446;-68
2023/05/18 08:03:24;;;;;;;;;15.00;12.33;;;;;15.27;47.67;102494.34;5013832;27;45347;-68
2023/05/18 08:05:50;;;;;;;;;12.00;9.00;;;;;15.10;49.43;102479.56;5013670;28;45531;-68
2023/05/18 08:08:15;;;;;;;;;10.33;8.33;;;;;15.10;48.37;102494.56;5013385;28;47365;-67
2023/05/18 08:10:41;;;;;;;;;17.00;16.33;;;;;15.34;49.30;102487.19;5037919;28;45446;-67
2023/05/18 08:13:07;;;;;;;;;15.67;15.00;;;;;17.11;46.93;102486.66;5033473;28;45312;-67
2023/05/18 08:15:34;;;;;;;;;13.00;11.33;;;;;18.92;42.81;102482.00;5032682;28;45649;-67
2023/05/18 08:17:59;;;;;;;;;18.33;12.33;;;;;18.66;43.38;102478.31;5032846;28;46208;-67
2023/05/18 08:20:28;;;;;;;;;18.00;11.33;;;;;18.20;43.93;102466.25;5032774;28;45402;-67
2023/05/18 08:22:54;;;;;;;;;15.00;11.33;;;;;17.95;44.13;102471.34;5033160;27;45429;-67
2023/05/18 08:25:20;;;;;;;;;12.00;9.00;;;;;17.87;44.00;102482.19;5036215;28;45447;-67
2023/05/18 08:27:45;;;;;;;;;9.67;8.33;;;;;18.03;44.62;102478.22;5036566;28;45555;-67
2023/05/18 08:30:11;;;;;;;;;11.00;10.00;;;;;18.28;43.50;102477.56;5036378;28;45385;-67
2023/05/18 08:32:36;;;;;;;;;13.67;12.00;;;;;17.99;43.80;102462.38;5036211;28;45612;-67
2023/05/18 08:35:05;;;;;;;;;15.00;11.67;;;;;17.82;43.92;102478.75;5036604;28;45425;-67
2023/05/18 08:37:31;;;;;;;;;16.33;12.00;;;;;17.49;44.35;102462.72;5036319;28;46560;-67
2023/05/18 08:39:58;;;;;;;;;11.67;10.00;;;;;17.34;44.74;102474.59;5037617;27;45418;-67
2023/05/18 08:42:39;;;;;;;;;11.00;11.00;;;;;17.21;44.72;102474.88;5036199;28;45422;-67
2023/05/18 08:45:14;;;;;;;;;13.33;13.00;;;;;17.22;45.08;102475.75;5036458;28;45590;-67
2023/05/18 08:47:40;;;;;;;;;13.00;10.67;;;;;17.05;43.83;102466.38;5035058;28;47339;-67
2023/05/18 08:50:12;;;;;;;;;13.67;10.33;;;;;16.99;44.83;102471.84;5035752;28;45442;-67
2023/05/18 08:52:45;;;;;;;;;12.67;11.00;;;;;16.72;45.44;102457.31;5035880;28;45422;-67
2023/05/18 08:55:11;;;;;;;;;16.00;10.00;;;;;16.69;44.71;102466.22;5036117;27;45614;-67
2023/05/18 08:57:38;;;;;;;;;15.00;10.33;;;;;16.69;44.61;102470.66;5036035;28;46112;-67
2023/05/18 09:00:04;;;;;;;;;10.67;10.00;;;;;16.62;44.90;102474.34;5035599;27;46144;-65
2023/05/18 09:02:32;;;;;;;;;11.67;10.33;;;;;16.61;44.64;102464.63;5036050;28;45369;-65
2023/05/18 09:04:58;;;;;;;;;12.00;9.33;;;;;17.64;43.82;102458.78;5036162;28;45245;-65
2023/05/18 09:07:26;;;;;;;;;10.67;9.67;;;;;18.42;42.07;102463.88;5035651;28;45417;-65
2023/05/18 09:09:53;;;;;;;;;10.33;10.33;;;;;18.44;41.72;102457.59;5035971;28;45346;-65
2023/05/18 09:12:21;;;;;;;;;11.00;9.67;;;;;18.33;41.60;102453.44;5035539;28;45449;-65
2023/05/18 09:14:47;;;;;;;;;11.67;10.67;;;;;18.47;42.16;102464.59;5036097;28;45228;-65
2023/05/18 09:17:13;;;;;;;;;11.00;8.67;;;;;18.39;41.54;102450.63;5035710;28;45590;-65
2023/05/18 09:19:38;;;;;;;;;10.33;9.00;;;;;18.24;41.76;102446.56;5035639;28;45230;-65
2023/05/18 09:22:04;;;;;;;;;12.33;12.33;;;;;18.12;41.54;102453.13;5036117;28;45225;-65
2023/05/18 09:24:30;;;;;;;;;11.00;10.00;;;;;18.08;41.80;102456.78;5035724;28;45460;-65
2023/05/18 09:26:55;;;;;;;;;10.67;10.67;;;;;18.05;41.56;102464.88;5035366;28;45410;-65
2023/05/18 09:29:22;;;;;;;;;9.67;9.67;;;;;18.04;41.25;102461.34;5035770;28;45436;-65
2023/05/18 09:31:48;;;;;;;;;14.00;9.67;;;;;18.08;41.26;102457.69;5035749;28;45430;-65
2023/05/18 09:34:15;;;;;;;;;10.33;6.67;;;;;18.26;40.22;102458.94;5035569;28;45520;-65
2023/05/18 09:36:41;;;;;;;;;11.33;9.67;;;;;18.46;40.98;102462.88;5034478;28;46499;-65
2023/05/18 09:39:10;;;;;;;;;13.67;9.00;;;;;18.63;39.83;102457.03;5035545;28;45387;-65
2023/05/18 09:41:39;;;;;;;;;8.67;8.00;;;;;18.77;40.12;102448.63;5036009;28;45439;-65
2023/05/18 09:44:08;;;;;;;;;9.67;8.00;;;;;19.01;40.00;102447.03;5035802;28;45739;-65
2023/05/18 09:46:37;;;;;;;;;10.33;10.33;;;;;19.46;38.46;102442.94;5034809;27;47551;-65
2023/05/18 09:49:04;;;;;;;;;14.00;13.33;;;;;20.69;37.53;102446.69;5035522;28;45351;-65
2023/05/18 09:51:33;;;;;;;;;9.00;9.00;;;;;21.53;35.13;102432.66;5035075;28;45261;-65
2023/05/18 09:53:58;;;;;;;;;11.33;7.67;;;;;22.45;34.92;102435.78;5035770;28;45297;-65
2023/05/18 09:56:25;;;;;;;;;8.67;7.00;;;;;22.95;33.21;102432.56;5035184;28;46321;-65
2023/05/18 09:58:51;;;;;;;;;14.00;9.67;;;;;23.44;33.75;102429.31;5035500;27;45451;-65
2023/05/18 10:01:17;;;;;;;;;10.33;8.67;;;;;23.91;32.67;102437.72;5035209;28;45429;-67
2023/05/18 10:03:44;;;;;;;;;15.00;9.33;;;;;24.31;32.73;102427.50;5035538;27;45512;-66
2023/05/18 10:06:14;;;;;;;;;14.00;8.00;;;;;24.76;32.60;102430.47;5034405;28;46302;-65
2023/05/18 10:08:40;;;;;;;;;12.33;10.00;;;;;25.27;31.21;102431.16;5034967;28;45295;-65
2023/05/18 10:11:06;;;;;;;;;7.67;7.33;;;;;25.85;30.06;102423.25;5034811;28;45529;-65
2023/05/18 10:13:33;;;;;;;;;10.33;7.67;;;;;26.28;27.96;102415.25;5035392;28;45500;-65
2023/05/18 10:16:04;;;;;;;;;10.33;8.67;;;;;27.13;28.69;102417.94;5034774;28;46426;-65
2023/05/18 10:18:33;;;;;;;;;15.67;11.00;;;;;27.94;27.77;102422.34;5034947;28;45282;-63
2023/05/18 10:21:01;;;;;;;;;7.67;7.67;;;;;28.78;28.82;102424.56;5034781;28;45549;-65
2023/05/18 10:23:30;;;;;;;;;8.00;8.00;;;;;29.52;27.53;102425.34;5035506;27;45467;-65
2023/05/18 10:25:56;;;;;;;;;13.00;9.00;;;;;30.12;26.37;102416.19;5034727;28;45548;-65
2023/05/18 10:28:27;;;;;;;;;11.33;10.00;;;;;30.89;26.25;102415.41;5034787;28;45284;-64
2023/05/18 10:30:55;;;;;;;;;7.33;6.33;;;;;31.43;24.92;102409.03;5035092;27;45529;-65
2023/05/18 10:33:25;;;;;;;;;10.00;8.67;;;;;32.03;24.71;102413.91;5034761;28;45469;-65
2023/05/18 10:35:51;;;;;;;;;13.33;11.00;;;;;32.46;22.83;102414.69;5034464;28;46086;-65
2023/05/18 10:38:23;;;;;;;;;14.00;11.00;;;;;32.74;22.17;102404.03;5034618;28;45481;-66
2023/05/18 10:40:52;;;;;;;;;11.67;8.67;;;;;33.05;23.20;102412.09;5034744;28;45450;-65
2023/05/18 10:43:19;;;;;;;;;14.33;8.67;;;;;33.19;22.28;102410.81;5034882;28;45556;-66
2023/05/18 10:45:49;;;;;;;;;9.00;7.33;;;;;33.30;22.40;102403.38;5033660;27;46592;-66
2023/05/18 10:48:16;;;;;;;;;11.00;10.00;;;;;32.90;22.45;102393.41;5035707;27;45445;-66
2023/05/18 10:50:42;;;;;;;;;11.00;9.67;;;;;32.14;21.71;102377.56;5034646;28;45292;-65
2023/05/18 10:53:09;;;;;;;;;8.00;6.33;;;;;31.76;22.22;102398.09;5034658;28;45270;-66
2023/05/18 10:55:34;;;;;;;;;10.00;9.67;;;;;31.25;22.82;102389.72;5034183;28;45482;-66
2023/05/18 10:58:06;;;;;;;;;11.33;9.00;;;;;30.50;22.78;102395.97;5034409;27;45166;-67
2023/05/18 11:00:35;;;;;;;;;10.00;8.00;;;;;29.71;23.99;102391.31;5034624;28;45294;-67
2023/05/18 11:03:03;;;;;;;;;11.67;10.00;;;;;28.89;23.33;102386.66;5034445;28;45393;-67
2023/05/18 11:05:29;;;;;;;;;12.33;11.00;;;;;28.16;24.13;102384.75;5034314;28;45410;-67
2023/05/18 11:08:04;;;;;;;;;12.33;7.33;;;;;27.37;24.70;102393.78;5034042;28;45371;-67
2023/05/18 11:10:48;;;;;;;;;9.00;9.00;;;;;26.52;25.97;102385.81;5035019;27;45415;-67
2023/05/18 11:13:14;;;;;;;;;9.67;9.67;;;;;25.87;26.33;102368.25;5034521;28;45387;-66
2023/05/18 11:16:15;;;;;;;;;10.67;10.00;;;;;25.21;27.04;102382.97;5034039;28;46090;-67